sensor_id;sensor_type;location;lat;lon;timestamp;temperature;humidity
75738;DHT22;64356;45.638;13.764;2023-02-24T00:01:13;19.00;61.30
75738;DHT22;64356;45.638;13.764;2023-02-24T00:03:43;19.10;61.30
75738;DHT22;64356;45.638;13.764;2023-02-24T00:06:10;19.00;61.20
75738;DHT22;64356;45.638;13.764;2023-02-24T00:08:40;19.00;61.20
75738;DHT22;64356;45.638;13.764;2023-02-24T00:11:14;19.00;61.30
75738;DHT22;64356;45.638;13.764;2023-02-24T00:13:42;19.00;61.20
75738;DHT22;64356;45.638;13.764;2023-02-24T00:16:12;19.00;61.20
75738;DHT22;64356;45.638;13.764;2023-02-24T00:18:38;19.00;61.20
75738;DHT22;64356;45.638;13.764;2023-02-24T00:21:06;19.00;61.20
75738;DHT22;64356;45.638;13.764;2023-02-24T00:23:38;19.00;61.20
75738;DHT22;64356;45.638;13.764;2023-02-24T00:26:06;19.00;61.20
75738;DHT22;64356;45.638;13.764;2023-02-24T00:28:36;19.00;61.20
75738;DHT22;64356;45.638;13.764;2023-02-24T00:31:07;18.90;61.10
75738;DHT22;64356;45.638;13.764;2023-02-24T00:33:34;19.00;61.10
75738;DHT22;64356;45.638;13.764;2023-02-24T00:36:07;18.90;61.10
75738;DHT22;64356;45.638;13.764;2023-02-24T00:38:35;18.90;61.00
75738;DHT22;64356;45.638;13.764;2023-02-24T00:41:11;18.90;61.10
75738;DHT22;64356;45.638;13.764;2023-02-24T00:43:43;18.90;61.10
75738;DHT22;64356;45.638;13.764;2023-02-24T00:46:19;18.90;61.00
75738;DHT22;64356;45.638;13.764;2023-02-24T00:48:47;18.90;61.00
75738;DHT22;64356;45.638;13.764;2023-02-24T00:51:18;18.90;61.00
75738;DHT22;64356;45.638;13.764;2023-02-24T00:53:49;18.90;61.00
75738;DHT22;64356;45.638;13.764;2023-02-24T00:56:15;18.90;61.00
75738;DHT22;64356;45.638;13.764;2023-02-24T00:58:42;18.90;61.00
75738;DHT22;64356;45.638;13.764;2023-02-24T01:01:17;18.90;60.90
75738;DHT22;64356;45.638;13.764;2023-02-24T01:03:44;18.90;60.90
75738;DHT22;64356;45.638;13.764;2023-02-24T01:06:11;18.90;60.90
75738;DHT22;64356;45.638;13.764;2023-02-24T01:08:40;18.80;60.90
75738;DHT22;64356;45.638;13.764;2023-02-24T01:11:13;18.90;60.90
75738;DHT22;64356;45.638;13.764;2023-02-24T01:13:58;18.90;60.90
75738;DHT22;64356;45.638;13.764;2023-02-24T01:16:24;18.80;60.80
75738;DHT22;64356;45.638;13.764;2023-02-24T01:18:50;18.80;60.80
75738;DHT22;64356;45.638;13.764;2023-02-24T01:21:18;18.80;60.80
75738;DHT22;64356;45.638;13.764;2023-02-24T01:23:49;18.80;60.80
75738;DHT22;64356;45.638;13.764;2023-02-24T01:26:16;18.80;60.80
75738;DHT22;64356;45.638;13.764;2023-02-24T01:28:43;18.80;60.80
75738;DHT22;64356;45.638;13.764;2023-02-24T01:31:14;18.80;60.80
75738;DHT22;64356;45.638;13.764;2023-02-24T01:33:48;18.80;60.80
75738;DHT22;64356;45.638;13.764;2023-02-24T01:36:23;18.80;60.80
75738;DHT22;64356;45.638;13.764;2023-02-24T01:38:50;18.80;60.70
75738;DHT22;64356;45.638;13.764;2023-02-24T01:41:21;18.80;60.70
75738;DHT22;64356;45.638;13.764;2023-02-24T01:44:03;18.80;60.70
75738;DHT22;64356;45.638;13.764;2023-02-24T01:46:38;18.80;60.70
75738;DHT22;64356;45.638;13.764;2023-02-24T01:49:20;18.70;60.60
75738;DHT22;64356;45.638;13.764;2023-02-24T01:54:16;18.70;60.60
75738;DHT22;64356;45.638;13.764;2023-02-24T01:56:49;18.70;60.60
75738;DHT22;64356;45.638;13.764;2023-02-24T01:59:16;18.70;60.60
75738;DHT22;64356;45.638;13.764;2023-02-24T02:01:43;18.70;60.60
75738;DHT22;64356;45.638;13.764;2023-02-24T02:06:47;18.70;60.50
75738;DHT22;64356;45.638;13.764;2023-02-24T02:09:14;18.70;60.50
75738;DHT22;64356;45.638;13.764;2023-02-24T02:11:41;18.70;60.50
75738;DHT22;64356;45.638;13.764;2023-02-24T02:14:08;18.70;60.50
75738;DHT22;64356;45.638;13.764;2023-02-24T02:24:38;18.70;60.40
75738;DHT22;64356;45.638;13.764;2023-02-24T02:27:29;18.70;60.30
75738;DHT22;64356;45.638;13.764;2023-02-24T02:43:20;18.70;60.20
75738;DHT22;64356;45.638;13.764;2023-02-24T02:48:39;18.60;60.10
75738;DHT22;64356;45.638;13.764;2023-02-24T02:51:14;18.60;60.60
75738;DHT22;64356;45.638;13.764;2023-02-24T02:53:55;18.60;60.10
75738;DHT22;64356;45.638;13.764;2023-02-24T02:56:28;18.60;60.00
75738;DHT22;64356;45.638;13.764;2023-02-24T02:58:57;18.60;60.00
75738;DHT22;64356;45.638;13.764;2023-02-24T03:01:28;18.60;60.00
75738;DHT22;64356;45.638;13.764;2023-02-24T03:04:01;18.60;60.00
75738;DHT22;64356;45.638;13.764;2023-02-24T03:06:35;18.60;60.00
75738;DHT22;64356;45.638;13.764;2023-02-24T03:09:08;18.60;60.00
75738;DHT22;64356;45.638;13.764;2023-02-24T03:12:10;18.60;59.90
75738;DHT22;64356;45.638;13.764;2023-02-24T03:14:42;18.60;60.00
75738;DHT22;64356;45.638;13.764;2023-02-24T03:17:19;18.60;59.90
75738;DHT22;64356;45.638;13.764;2023-02-24T03:19:50;18.60;59.90
75738;DHT22;64356;45.638;13.764;2023-02-24T03:22:40;18.60;59.90
75738;DHT22;64356;45.638;13.764;2023-02-24T03:25:07;18.60;59.90
75738;DHT22;64356;45.638;13.764;2023-02-24T03:27:57;18.60;59.90
75738;DHT22;64356;45.638;13.764;2023-02-24T03:30:34;18.60;59.80
75738;DHT22;64356;45.638;13.764;2023-02-24T03:33:12;18.60;59.80
75738;DHT22;64356;45.638;13.764;2023-02-24T03:35:41;18.60;59.70
75738;DHT22;64356;45.638;13.764;2023-02-24T03:38:08;18.60;59.70
75738;DHT22;64356;45.638;13.764;2023-02-24T03:40:36;18.60;59.70
75738;DHT22;64356;45.638;13.764;2023-02-24T03:43:07;18.60;59.70
75738;DHT22;64356;45.638;13.764;2023-02-24T03:45:38;18.60;59.70
75738;DHT22;64356;45.638;13.764;2023-02-24T03:48:07;18.60;59.70
75738;DHT22;64356;45.638;13.764;2023-02-24T03:50:34;18.60;59.70
75738;DHT22;64356;45.638;13.764;2023-02-24T03:53:31;18.60;59.70
75738;DHT22;64356;45.638;13.764;2023-02-24T03:59:01;18.50;59.60
75738;DHT22;64356;45.638;13.764;2023-02-24T04:06:39;18.50;59.50
75738;DHT22;64356;45.638;13.764;2023-02-24T04:12:13;18.50;59.50
75738;DHT22;64356;45.638;13.764;2023-02-24T04:20:07;18.50;59.50
75738;DHT22;64356;45.638;13.764;2023-02-24T04:22:47;18.50;59.40
75738;DHT22;64356;45.638;13.764;2023-02-24T04:25:20;18.50;59.40
75738;DHT22;64356;45.638;13.764;2023-02-24T04:27:50;18.50;59.40
75738;DHT22;64356;45.638;13.764;2023-02-24T04:30:17;18.50;59.30
75738;DHT22;64356;45.638;13.764;2023-02-24T04:32:43;18.50;59.30
75738;DHT22;64356;45.638;13.764;2023-02-24T04:35:12;18.50;59.30
75738;DHT22;64356;45.638;13.764;2023-02-24T04:37:38;18.50;59.30
75738;DHT22;64356;45.638;13.764;2023-02-24T04:40:14;18.50;59.20
75738;DHT22;64356;45.638;13.764;2023-02-24T04:42:44;18.40;59.20
75738;DHT22;64356;45.638;13.764;2023-02-24T04:45:19;18.50;59.20
75738;DHT22;64356;45.638;13.764;2023-02-24T04:47:49;18.40;59.20
75738;DHT22;64356;45.638;13.764;2023-02-24T04:50:19;18.50;59.20
75738;DHT22;64356;45.638;13.764;2023-02-24T04:53:12;18.40;59.10
75738;DHT22;64356;45.638;13.764;2023-02-24T04:55:41;18.40;59.10
75738;DHT22;64356;45.638;13.764;2023-02-24T04:58:12;18.40;59.10
75738;DHT22;64356;45.638;13.764;2023-02-24T05:00:39;18.40;59.10
75738;DHT22;64356;45.638;13.764;2023-02-24T05:03:08;18.40;59.00
75738;DHT22;64356;45.638;13.764;2023-02-24T05:05:35;18.40;59.60
75738;DHT22;64356;45.638;13.764;2023-02-24T05:08:06;18.40;59.00
75738;DHT22;64356;45.638;13.764;2023-02-24T05:10:38;18.40;59.00
75738;DHT22;64356;45.638;13.764;2023-02-24T05:13:06;18.40;59.00
75738;DHT22;64356;45.638;13.764;2023-02-24T05:15:36;18.40;59.00
75738;DHT22;64356;45.638;13.764;2023-02-24T05:18:04;18.40;59.30
75738;DHT22;64356;45.638;13.764;2023-02-24T05:20:37;18.60;59.10
75738;DHT22;64356;45.638;13.764;2023-02-24T05:23:31;19.00;58.20
75738;DHT22;64356;45.638;13.764;2023-02-24T05:25:58;19.30;57.20
75738;DHT22;64356;45.638;13.764;2023-02-24T05:28:24;19.50;56.30
75738;DHT22;64356;45.638;13.764;2023-02-24T05:30:51;19.70;55.70
75738;DHT22;64356;45.638;13.764;2023-02-24T05:33:19;19.90;55.10
75738;DHT22;64356;45.638;13.764;2023-02-24T05:35:48;20.00;54.70
75738;DHT22;64356;45.638;13.764;2023-02-24T05:38:16;20.20;54.40
75738;DHT22;64356;45.638;13.764;2023-02-24T05:40:45;20.20;54.30
75738;DHT22;64356;45.638;13.764;2023-02-24T05:43:12;20.30;53.70
75738;DHT22;64356;45.638;13.764;2023-02-24T05:45:46;20.40;53.40
75738;DHT22;64356;45.638;13.764;2023-02-24T05:48:12;20.50;53.10
75738;DHT22;64356;45.638;13.764;2023-02-24T05:50:50;20.60;52.80
75738;DHT22;64356;45.638;13.764;2023-02-24T05:53:16;20.70;52.50
75738;DHT22;64356;45.638;13.764;2023-02-24T05:55:43;20.80;52.20
75738;DHT22;64356;45.638;13.764;2023-02-24T05:58:09;20.90;51.90
75738;DHT22;64356;45.638;13.764;2023-02-24T06:00:35;21.00;51.70
75738;DHT22;64356;45.638;13.764;2023-02-24T06:03:04;21.10;51.50
75738;DHT22;64356;45.638;13.764;2023-02-24T06:05:42;21.10;51.30
75738;DHT22;64356;45.638;13.764;2023-02-24T06:08:08;21.10;51.10
75738;DHT22;64356;45.638;13.764;2023-02-24T06:10:37;21.20;51.10
75738;DHT22;64356;45.638;13.764;2023-02-24T06:13:05;21.20;51.00
75738;DHT22;64356;45.638;13.764;2023-02-24T06:15:32;21.20;50.90
75738;DHT22;64356;45.638;13.764;2023-02-24T06:18:01;21.20;50.80
75738;DHT22;64356;45.638;13.764;2023-02-24T06:20:27;21.20;50.70
75738;DHT22;64356;45.638;13.764;2023-02-24T06:22:54;21.30;50.70
75738;DHT22;64356;45.638;13.764;2023-02-24T06:25:25;21.30;50.50
75738;DHT22;64356;45.638;13.764;2023-02-24T06:27:54;21.30;50.50
75738;DHT22;64356;45.638;13.764;2023-02-24T06:30:23;21.30;50.60
75738;DHT22;64356;45.638;13.764;2023-02-24T06:32:49;21.40;50.70
75738;DHT22;64356;45.638;13.764;2023-02-24T06:35:16;21.40;50.10
75738;DHT22;64356;45.638;13.764;2023-02-24T06:37:42;21.40;49.80
75738;DHT22;64356;45.638;13.764;2023-02-24T06:40:08;21.50;50.00
75738;DHT22;64356;45.638;13.764;2023-02-24T06:42:47;21.50;49.90
75738;DHT22;64356;45.638;13.764;2023-02-24T06:45:14;21.60;49.80
75738;DHT22;64356;45.638;13.764;2023-02-24T06:47:41;21.60;50.00
75738;DHT22;64356;45.638;13.764;2023-02-24T06:50:09;21.70;50.30
75738;DHT22;64356;45.638;13.764;2023-02-24T06:52:35;21.80;50.90
75738;DHT22;64356;45.638;13.764;2023-02-24T06:55:02;21.80;50.20
75738;DHT22;64356;45.638;13.764;2023-02-24T06:57:31;21.90;49.90
75738;DHT22;64356;45.638;13.764;2023-02-24T07:00:00;21.90;49.10
75738;DHT22;64356;45.638;13.764;2023-02-24T07:02:41;21.90;48.00
75738;DHT22;64356;45.638;13.764;2023-02-24T07:05:07;21.40;46.20
75738;DHT22;64356;45.638;13.764;2023-02-24T07:07:39;21.10;49.20
75738;DHT22;64356;45.638;13.764;2023-02-24T07:10:11;21.00;48.70
75738;DHT22;64356;45.638;13.764;2023-02-24T07:12:38;21.10;49.60
75738;DHT22;64356;45.638;13.764;2023-02-24T07:15:07;21.20;49.50
75738;DHT22;64356;45.638;13.764;2023-02-24T07:17:32;21.30;49.20
75738;DHT22;64356;45.638;13.764;2023-02-24T07:19:58;21.50;49.20
75738;DHT22;64356;45.638;13.764;2023-02-24T07:22:36;21.50;48.90
75738;DHT22;64356;45.638;13.764;2023-02-24T07:25:02;21.60;49.30
75738;DHT22;64356;45.638;13.764;2023-02-24T07:27:29;21.70;48.90
75738;DHT22;64356;45.638;13.764;2023-02-24T07:29:54;21.70;48.70
75738;DHT22;64356;45.638;13.764;2023-02-24T07:32:21;21.70;48.80
75738;DHT22;64356;45.638;13.764;2023-02-24T07:34:47;21.70;48.90
75738;DHT22;64356;45.638;13.764;2023-02-24T07:37:13;21.70;49.00
75738;DHT22;64356;45.638;13.764;2023-02-24T07:39:39;21.80;49.00
75738;DHT22;64356;45.638;13.764;2023-02-24T07:42:09;21.90;48.90
75738;DHT22;64356;45.638;13.764;2023-02-24T07:44:35;21.90;49.20
75738;DHT22;64356;45.638;13.764;2023-02-24T07:47:01;22.00;49.20
75738;DHT22;64356;45.638;13.764;2023-02-24T07:49:32;22.00;49.00
75738;DHT22;64356;45.638;13.764;2023-02-24T07:51:58;22.00;49.00
75738;DHT22;64356;45.638;13.764;2023-02-24T07:54:26;22.00;49.10
75738;DHT22;64356;45.638;13.764;2023-02-24T07:56:56;22.00;49.10
75738;DHT22;64356;45.638;13.764;2023-02-24T07:59:28;22.10;49.40
75738;DHT22;64356;45.638;13.764;2023-02-24T08:01:55;22.00;49.90
75738;DHT22;64356;45.638;13.764;2023-02-24T08:04:27;22.10;50.50
75738;DHT22;64356;45.638;13.764;2023-02-24T08:06:53;22.10;50.80
75738;DHT22;64356;45.638;13.764;2023-02-24T08:09:25;22.20;50.60
75738;DHT22;64356;45.638;13.764;2023-02-24T08:12:20;22.20;50.60
75738;DHT22;64356;45.638;13.764;2023-02-24T08:14:49;22.20;50.60
75738;DHT22;64356;45.638;13.764;2023-02-24T08:17:17;22.20;50.60
75738;DHT22;64356;45.638;13.764;2023-02-24T08:19:46;22.20;50.50
75738;DHT22;64356;45.638;13.764;2023-02-24T08:22:13;22.20;50.80
75738;DHT22;64356;45.638;13.764;2023-02-24T08:24:55;22.20;50.70
75738;DHT22;64356;45.638;13.764;2023-02-24T08:27:27;22.20;50.90
75738;DHT22;64356;45.638;13.764;2023-02-24T08:29:55;22.20;50.80
75738;DHT22;64356;45.638;13.764;2023-02-24T08:35:32;22.20;50.60
75738;DHT22;64356;45.638;13.764;2023-02-24T08:38:13;22.20;50.40
75738;DHT22;64356;45.638;13.764;2023-02-24T08:40:50;22.30;50.20
75738;DHT22;64356;45.638;13.764;2023-02-24T08:43:23;22.40;50.10
75738;DHT22;64356;45.638;13.764;2023-02-24T08:48:45;22.60;49.50
75738;DHT22;64356;45.638;13.764;2023-02-24T08:51:24;22.70;49.80
75738;DHT22;64356;45.638;13.764;2023-02-24T08:53:57;22.80;49.40
75738;DHT22;64356;45.638;13.764;2023-02-24T08:56:27;22.90;49.50
75738;DHT22;64356;45.638;13.764;2023-02-24T08:58:57;23.00;50.30
75738;DHT22;64356;45.638;13.764;2023-02-24T09:01:32;23.00;50.50
75738;DHT22;64356;45.638;13.764;2023-02-24T09:04:07;23.10;50.30
75738;DHT22;64356;45.638;13.764;2023-02-24T09:06:38;23.20;50.30
75738;DHT22;64356;45.638;13.764;2023-02-24T09:09:04;23.20;49.90
75738;DHT22;64356;45.638;13.764;2023-02-24T09:14:15;23.20;49.50
75738;DHT22;64356;45.638;13.764;2023-02-24T09:16:45;23.20;49.30
75738;DHT22;64356;45.638;13.764;2023-02-24T09:19:50;23.10;49.20
75738;DHT22;64356;45.638;13.764;2023-02-24T09:22:25;23.10;49.30
75738;DHT22;64356;45.638;13.764;2023-02-24T09:28:22;22.90;50.40
75738;DHT22;64356;45.638;13.764;2023-02-24T09:30:49;22.80;49.70
75738;DHT22;64356;45.638;13.764;2023-02-24T09:36:03;22.60;49.80
75738;DHT22;64356;45.638;13.764;2023-02-24T09:38:49;22.60;50.40
75738;DHT22;64356;45.638;13.764;2023-02-24T09:41:36;22.50;51.00
75738;DHT22;64356;45.638;13.764;2023-02-24T09:44:35;22.50;51.30
75738;DHT22;64356;45.638;13.764;2023-02-24T09:49:53;22.40;51.50
75738;DHT22;64356;45.638;13.764;2023-02-24T09:52:28;22.40;51.40
75738;DHT22;64356;45.638;13.764;2023-02-24T09:55:16;22.40;51.40
75738;DHT22;64356;45.638;13.764;2023-02-24T09:58:01;22.40;51.20
75738;DHT22;64356;45.638;13.764;2023-02-24T10:03:56;22.40;52.00
75738;DHT22;64356;45.638;13.764;2023-02-24T10:06:42;22.40;51.80
75738;DHT22;64356;45.638;13.764;2023-02-24T10:09:25;22.40;51.80
75738;DHT22;64356;45.638;13.764;2023-02-24T10:12:01;22.40;51.80
75738;DHT22;64356;45.638;13.764;2023-02-24T10:17:16;22.50;51.90
75738;DHT22;64356;45.638;13.764;2023-02-24T10:22:35;22.50;51.90
75738;DHT22;64356;45.638;13.764;2023-02-24T10:30:32;22.50;52.20
75738;DHT22;64356;45.638;13.764;2023-02-24T10:33:22;22.60;52.30
75738;DHT22;64356;45.638;13.764;2023-02-24T10:35:51;22.50;52.10
75738;DHT22;64356;45.638;13.764;2023-02-24T10:38:19;22.60;52.10
75738;DHT22;64356;45.638;13.764;2023-02-24T10:40:48;22.50;52.30
75738;DHT22;64356;45.638;13.764;2023-02-24T10:43:23;22.60;52.20
75738;DHT22;64356;45.638;13.764;2023-02-24T10:45:55;22.60;52.10
75738;DHT22;64356;45.638;13.764;2023-02-24T10:48:32;22.60;52.20
75738;DHT22;64356;45.638;13.764;2023-02-24T10:51:13;22.70;52.50
75738;DHT22;64356;45.638;13.764;2023-02-24T10:53:48;22.70;52.30
75738;DHT22;64356;45.638;13.764;2023-02-24T10:56:38;22.70;52.50
75738;DHT22;64356;45.638;13.764;2023-02-24T10:59:14;22.70;52.80
75738;DHT22;64356;45.638;13.764;2023-02-24T11:02:15;22.70;52.60
75738;DHT22;64356;45.638;13.764;2023-02-24T11:04:52;22.60;52.50
75738;DHT22;64356;45.638;13.764;2023-02-24T11:07:31;22.70;52.90
75738;DHT22;64356;45.638;13.764;2023-02-24T11:10:23;22.80;52.80
75738;DHT22;64356;45.638;13.764;2023-02-24T11:12:58;22.80;52.60
75738;DHT22;64356;45.638;13.764;2023-02-24T11:15:47;22.80;52.10
75738;DHT22;64356;45.638;13.764;2023-02-24T11:18:33;22.70;52.00
75738;DHT22;64356;45.638;13.764;2023-02-24T11:21:03;22.70;52.10
75738;DHT22;64356;45.638;13.764;2023-02-24T11:23:37;22.70;51.80
75738;DHT22;64356;45.638;13.764;2023-02-24T11:28:47;22.70;51.70
75738;DHT22;64356;45.638;13.764;2023-02-24T11:40:04;22.70;51.10
75738;DHT22;64356;45.638;13.764;2023-02-24T11:42:43;22.70;51.30
75738;DHT22;64356;45.638;13.764;2023-02-24T11:48:12;22.80;51.20
75738;DHT22;64356;45.638;13.764;2023-02-24T11:51:01;22.70;50.90
75738;DHT22;64356;45.638;13.764;2023-02-24T11:53:46;22.70;51.00
75738;DHT22;64356;45.638;13.764;2023-02-24T11:56:27;22.70;51.20
75738;DHT22;64356;45.638;13.764;2023-02-24T12:02:22;22.70;51.70
75738;DHT22;64356;45.638;13.764;2023-02-24T12:07:24;22.80;51.60
75738;DHT22;64356;45.638;13.764;2023-02-24T12:10:05;22.70;51.40
75738;DHT22;64356;45.638;13.764;2023-02-24T12:12:43;22.80;51.40
75738;DHT22;64356;45.638;13.764;2023-02-24T12:15:29;22.70;51.60
75738;DHT22;64356;45.638;13.764;2023-02-24T12:20:43;22.70;51.50
75738;DHT22;64356;45.638;13.764;2023-02-24T12:23:33;22.80;51.70
75738;DHT22;64356;45.638;13.764;2023-02-24T12:26:21;22.80;51.60
75738;DHT22;64356;45.638;13.764;2023-02-24T12:31:44;22.70;51.60
75738;DHT22;64356;45.638;13.764;2023-02-24T12:42:30;22.80;52.20
75738;DHT22;64356;45.638;13.764;2023-02-24T12:48:04;22.80;52.00
75738;DHT22;64356;45.638;13.764;2023-02-24T12:51:16;22.80;51.90
75738;DHT22;64356;45.638;13.764;2023-02-24T12:54:13;22.70;50.20
75738;DHT22;64356;45.638;13.764;2023-02-24T12:59:18;21.90;48.90
75738;DHT22;64356;45.638;13.764;2023-02-24T13:01:56;21.40;49.80
75738;DHT22;64356;45.638;13.764;2023-02-24T13:04:42;21.20;52.20
75738;DHT22;64356;45.638;13.764;2023-02-24T13:15:50;22.00;52.40
75738;DHT22;64356;45.638;13.764;2023-02-24T13:18:24;22.10;52.60
75738;DHT22;64356;45.638;13.764;2023-02-24T13:21:17;22.10;53.00
75738;DHT22;64356;45.638;13.764;2023-02-24T13:23:56;22.20;53.20
75738;DHT22;64356;45.638;13.764;2023-02-24T13:26:24;22.30;52.80
75738;DHT22;64356;45.638;13.764;2023-02-24T13:29:11;22.40;52.60
75738;DHT22;64356;45.638;13.764;2023-02-24T13:31:51;22.40;52.70
75738;DHT22;64356;45.638;13.764;2023-02-24T13:34:32;22.40;50.80
75738;DHT22;64356;45.638;13.764;2023-02-24T13:36:58;22.30;51.50
75738;DHT22;64356;45.638;13.764;2023-02-24T13:39:34;22.30;51.80
75738;DHT22;64356;45.638;13.764;2023-02-24T13:44:30;22.40;52.30
75738;DHT22;64356;45.638;13.764;2023-02-24T13:47:19;22.50;52.00
75738;DHT22;64356;45.638;13.764;2023-02-24T13:50:13;22.50;52.50
75738;DHT22;64356;45.638;13.764;2023-02-24T14:01:13;22.60;52.20
75738;DHT22;64356;45.638;13.764;2023-02-24T14:03:42;22.60;52.30
75738;DHT22;64356;45.638;13.764;2023-02-24T14:06:23;22.60;52.00
75738;DHT22;64356;45.638;13.764;2023-02-24T14:08:53;22.60;52.20
75738;DHT22;64356;45.638;13.764;2023-02-24T14:11:24;22.70;51.70
75738;DHT22;64356;45.638;13.764;2023-02-24T14:13:53;22.70;51.70
75738;DHT22;64356;45.638;13.764;2023-02-24T14:16:24;22.70;51.40
75738;DHT22;64356;45.638;13.764;2023-02-24T14:18:55;22.80;51.30
75738;DHT22;64356;45.638;13.764;2023-02-24T14:21:29;22.70;51.20
75738;DHT22;64356;45.638;13.764;2023-02-24T14:24:01;22.70;51.20
75738;DHT22;64356;45.638;13.764;2023-02-24T14:26:31;22.70;51.20
75738;DHT22;64356;45.638;13.764;2023-02-24T14:29:00;22.70;51.00
75738;DHT22;64356;45.638;13.764;2023-02-24T14:31:27;22.70;51.00
75738;DHT22;64356;45.638;13.764;2023-02-24T14:33:59;22.70;50.90
75738;DHT22;64356;45.638;13.764;2023-02-24T14:36:37;22.70;50.60
75738;DHT22;64356;45.638;13.764;2023-02-24T14:41:38;22.80;50.80
75738;DHT22;64356;45.638;13.764;2023-02-24T14:44:18;22.70;50.60
75738;DHT22;64356;45.638;13.764;2023-02-24T14:46:52;22.70;50.80
75738;DHT22;64356;45.638;13.764;2023-02-24T14:49:38;22.70;53.70
75738;DHT22;64356;45.638;13.764;2023-02-24T14:52:05;22.60;53.30
75738;DHT22;64356;45.638;13.764;2023-02-24T14:54:48;22.40;52.10
75738;DHT22;64356;45.638;13.764;2023-02-24T14:57:23;22.20;51.10
75738;DHT22;64356;45.638;13.764;2023-02-24T15:00:00;22.00;51.10
75738;DHT22;64356;45.638;13.764;2023-02-24T15:02:37;21.80;51.60
75738;DHT22;64356;45.638;13.764;2023-02-24T15:05:07;21.70;53.00
75738;DHT22;64356;45.638;13.764;2023-02-24T15:07:34;21.70;53.10
75738;DHT22;64356;45.638;13.764;2023-02-24T15:10:02;21.70;52.90
75738;DHT22;64356;45.638;13.764;2023-02-24T15:12:31;21.80;52.70
75738;DHT22;64356;45.638;13.764;2023-02-24T15:15:02;21.80;52.60
75738;DHT22;64356;45.638;13.764;2023-02-24T15:17:29;21.90;52.50
75738;DHT22;64356;45.638;13.764;2023-02-24T15:19:54;22.10;52.20
75738;DHT22;64356;45.638;13.764;2023-02-24T15:24:46;22.30;51.90
75738;DHT22;64356;45.638;13.764;2023-02-24T15:29:41;22.40;51.90
75738;DHT22;64356;45.638;13.764;2023-02-24T15:32:27;22.50;51.70
75738;DHT22;64356;45.638;13.764;2023-02-24T15:34:53;22.50;51.60
75738;DHT22;64356;45.638;13.764;2023-02-24T15:37:30;22.50;51.50
75738;DHT22;64356;45.638;13.764;2023-02-24T15:40:14;22.60;51.40
75738;DHT22;64356;45.638;13.764;2023-02-24T15:42:53;22.50;51.20
75738;DHT22;64356;45.638;13.764;2023-02-24T15:45:34;22.60;51.20
75738;DHT22;64356;45.638;13.764;2023-02-24T15:48:00;22.60;51.10
75738;DHT22;64356;45.638;13.764;2023-02-24T15:50:28;22.60;51.10
75738;DHT22;64356;45.638;13.764;2023-02-24T15:52:59;22.60;51.10
75738;DHT22;64356;45.638;13.764;2023-02-24T15:55:28;22.60;51.10
75738;DHT22;64356;45.638;13.764;2023-02-24T15:58:01;22.60;51.00
75738;DHT22;64356;45.638;13.764;2023-02-24T16:00:28;22.60;51.00
75738;DHT22;64356;45.638;13.764;2023-02-24T16:02:56;22.50;51.40
75738;DHT22;64356;45.638;13.764;2023-02-24T16:05:22;22.60;51.30
75738;DHT22;64356;45.638;13.764;2023-02-24T16:07:48;22.60;51.20
75738;DHT22;64356;45.638;13.764;2023-02-24T16:10:26;22.60;51.10
75738;DHT22;64356;45.638;13.764;2023-02-24T16:12:57;22.60;51.20
75738;DHT22;64356;45.638;13.764;2023-02-24T16:15:27;22.50;51.20
75738;DHT22;64356;45.638;13.764;2023-02-24T16:17:54;22.50;51.20
75738;DHT22;64356;45.638;13.764;2023-02-24T16:20:26;22.40;51.40
75738;DHT22;64356;45.638;13.764;2023-02-24T16:23:02;22.30;51.60
75738;DHT22;64356;45.638;13.764;2023-02-24T16:25:42;22.20;51.80
75738;DHT22;64356;45.638;13.764;2023-02-24T16:28:19;22.20;52.00
75738;DHT22;64356;45.638;13.764;2023-02-24T16:30:45;22.10;52.30
75738;DHT22;64356;45.638;13.764;2023-02-24T16:33:12;22.00;52.40
75738;DHT22;64356;45.638;13.764;2023-02-24T16:35:39;21.90;52.60
75738;DHT22;64356;45.638;13.764;2023-02-24T16:38:09;21.80;52.50
75738;DHT22;64356;45.638;13.764;2023-02-24T16:40:41;21.70;52.40
75738;DHT22;64356;45.638;13.764;2023-02-24T16:43:07;21.70;53.20
75738;DHT22;64356;45.638;13.764;2023-02-24T16:45:33;21.60;53.60
75738;DHT22;64356;45.638;13.764;2023-02-24T16:48:01;21.60;53.50
75738;DHT22;64356;45.638;13.764;2023-02-24T16:50:38;21.50;52.40
75738;DHT22;64356;45.638;13.764;2023-02-24T16:53:10;21.40;53.30
75738;DHT22;64356;45.638;13.764;2023-02-24T16:55:38;21.40;54.40
75738;DHT22;64356;45.638;13.764;2023-02-24T16:58:04;21.40;54.30
75738;DHT22;64356;45.638;13.764;2023-02-24T17:00:29;21.40;54.40
75738;DHT22;64356;45.638;13.764;2023-02-24T17:02:55;21.30;54.40
75738;DHT22;64356;45.638;13.764;2023-02-24T17:05:23;21.30;54.50
75738;DHT22;64356;45.638;13.764;2023-02-24T17:07:54;21.30;54.60
75738;DHT22;64356;45.638;13.764;2023-02-24T17:10:21;21.20;54.60
75738;DHT22;64356;45.638;13.764;2023-02-24T17:12:47;21.20;54.70
75738;DHT22;64356;45.638;13.764;2023-02-24T17:15:19;21.20;55.00
75738;DHT22;64356;45.638;13.764;2023-02-24T17:17:45;21.10;55.10
75738;DHT22;64356;45.638;13.764;2023-02-24T17:20:12;21.10;55.20
75738;DHT22;64356;45.638;13.764;2023-02-24T17:22:38;21.10;55.30
75738;DHT22;64356;45.638;13.764;2023-02-24T17:25:04;21.00;55.30
75738;DHT22;64356;45.638;13.764;2023-02-24T17:27:31;21.00;55.50
75738;DHT22;64356;45.638;13.764;2023-02-24T17:29:57;21.00;55.60
75738;DHT22;64356;45.638;13.764;2023-02-24T17:32:23;21.00;55.60
75738;DHT22;64356;45.638;13.764;2023-02-24T17:34:48;20.90;55.90
75738;DHT22;64356;45.638;13.764;2023-02-24T17:37:15;21.00;55.80
75738;DHT22;64356;45.638;13.764;2023-02-24T17:39:41;21.00;55.70
75738;DHT22;64356;45.638;13.764;2023-02-24T17:42:07;20.90;55.70
75738;DHT22;64356;45.638;13.764;2023-02-24T17:44:32;20.90;55.70
75738;DHT22;64356;45.638;13.764;2023-02-24T17:46:58;20.90;55.70
75738;DHT22;64356;45.638;13.764;2023-02-24T17:49:24;20.90;55.70
75738;DHT22;64356;45.638;13.764;2023-02-24T17:51:49;20.90;55.70
75738;DHT22;64356;45.638;13.764;2023-02-24T17:54:15;20.80;55.70
75738;DHT22;64356;45.638;13.764;2023-02-24T17:56:41;20.80;55.80
75738;DHT22;64356;45.638;13.764;2023-02-24T17:59:06;20.80;55.80
75738;DHT22;64356;45.638;13.764;2023-02-24T18:01:32;20.80;55.90
75738;DHT22;64356;45.638;13.764;2023-02-24T18:03:58;20.70;55.90
75738;DHT22;64356;45.638;13.764;2023-02-24T18:06:24;20.70;55.90
75738;DHT22;64356;45.638;13.764;2023-02-24T18:08:50;20.70;56.00
75738;DHT22;64356;45.638;13.764;2023-02-24T18:11:18;20.60;56.00